Time;durP1;ratioP1;P1;durP2;ratioP2;P2;SDS_P1;SDS_P2;PMS_P1;PMS_P2;Temp;Humidity;BMP_temperature;BMP_pressure;BME280_temperature;BME280_humidity;BME280_pressure;Samples;Min_cycle;Max_cycle;Signal;HPM_P1;HPM_P2
2023/04/28 00:02:22;;;;;;;6.40;2.80;;;;;;;19.40;nan;100843.84;6166168;23;20407;-85
2023/04/28 00:04:50;;;;;;;9.03;3.33;;;;;;;19.36;nan;100849.03;6142748;23;20815;-85
2023/04/28 00:07:18;;;;;;;12.23;3.70;;;;;;;19.36;nan;100850.97;6167157;23;20481;-85
2023/04/28 00:09:47;;;;;;;7.93;2.60;;;;;;;19.33;nan;100844.81;6142228;23;20487;-85
2023/04/28 00:12:15;;;;;;;12.87;3.40;;;;;;;19.29;nan;100843.63;6216169;23;20709;-85
2023/04/28 00:14:44;;;;;;;4.93;3.30;;;;;;;19.26;nan;100838.59;6190747;23;20766;-85
2023/04/28 00:17:12;;;;;;;4.33;2.57;;;;;;;19.25;nan;100848.00;6189462;23;20410;-85
2023/04/28 00:19:40;;;;;;;9.93;3.13;;;;;;;19.14;nan;100836.97;6217601;23;20526;-85
2023/04/28 00:22:08;;;;;;;10.50;3.57;;;;;;;19.24;nan;100851.84;6161912;23;20421;-86
2023/04/28 00:24:37;;;;;;;12.30;3.47;;;;;;;19.18;nan;100852.88;6161789;23;20589;-86
2023/04/28 00:27:06;;;;;;;14.40;2.70;;;;;;;19.20;nan;100839.59;6162252;23;20418;-86
2023/04/28 00:29:34;;;;;;;11.80;3.80;;;;;;;19.23;nan;100825.25;6190923;23;20490;-85
2023/04/28 00:32:03;;;;;;;13.40;3.63;;;;;;;19.39;nan;100831.91;6140921;23;20554;-87
2023/04/28 00:34:36;;;;;;;13.80;4.37;;;;;;;19.50;nan;100830.19;6188536;23;20422;-85
2023/04/28 00:37:04;;;;;;;15.50;4.07;;;;;;;19.58;nan;100830.63;6142668;23;20403;-85
2023/04/28 00:39:31;;;;;;;10.13;3.20;;;;;;;19.58;nan;100813.97;6166354;23;20490;-85
2023/04/28 00:42:01;;;;;;;15.10;4.27;;;;;;;19.69;nan;100817.75;6142018;23;20747;-85
2023/04/28 00:44:29;;;;;;;10.80;3.50;;;;;;;19.75;nan;100819.53;6166105;23;20410;-85
2023/04/28 00:46:58;;;;;;;12.90;3.30;;;;;;;19.76;nan;100812.88;6190255;23;20395;-85
2023/04/28 00:49:25;;;;;;;8.50;4.30;;;;;;;19.71;nan;100807.25;6190993;23;20478;-85
2023/04/28 00:51:53;;;;;;;16.10;4.83;;;;;;;19.72;nan;100803.38;6165585;23;20431;-85
2023/04/28 00:54:21;;;;;;;15.83;4.60;;;;;;;19.81;nan;100806.59;6141742;23;20406;-85
2023/04/28 00:56:49;;;;;;;12.47;3.73;;;;;;;19.79;nan;100806.84;6190648;23;20533;-85
2023/04/28 00:59:17;;;;;;;14.27;3.67;;;;;;;19.81;nan;100804.66;6166376;23;20403;-86
2023/04/28 01:01:45;;;;;;;20.23;3.90;;;;;;;19.76;nan;100807.34;6188805;23;20940;-86
2023/04/28 01:04:13;;;;;;;9.93;3.60;;;;;;;19.76;nan;100818.44;6139293;23;20411;-84
2023/04/28 01:06:42;;;;;;;9.20;2.97;;;;;;;19.63;nan;100815.97;6141681;23;20517;-83
2023/04/28 01:09:10;;;;;;;13.87;4.23;;;;;;;19.55;nan;100824.72;6165935;23;20410;-83
2023/04/28 01:11:37;;;;;;;8.40;3.10;;;;;;;19.54;nan;100834.97;6190269;23;20961;-83
2023/04/28 01:14:05;;;;;;;11.77;3.63;;;;;;;19.47;nan;100834.25;6165491;23;20407;-83
2023/04/28 01:16:34;;;;;;;12.93;3.10;;;;;;;19.45;nan;100827.28;6165961;23;20399;-83
2023/04/28 01:19:01;;;;;;;12.50;3.87;;;;;;;19.48;nan;100829.56;6166181;23;20403;-83
2023/04/28 01:21:32;;;;;;;11.50;3.87;;;;;;;19.43;nan;100830.31;6141240;23;20400;-83
2023/04/28 01:24:00;;;;;;;14.50;3.33;;;;;;;19.35;nan;100830.72;6141670;23;20490;-83
2023/04/28 01:26:28;;;;;;;13.20;3.37;;;;;;;19.29;nan;100826.16;6141397;23;20435;-83
2023/04/28 01:28:56;;;;;;;13.33;3.20;;;;;;;19.16;nan;100820.94;6141664;23;20741;-84
2023/04/28 01:31:24;;;;;;;11.90;3.43;;;;;;;19.15;nan;100835.88;6216162;23;20480;-83
2023/04/28 01:33:52;;;;;;;12.27;3.27;;;;;;;19.10;nan;100838.56;6190070;23;20485;-83
2023/04/28 01:36:21;;;;;;;6.97;2.90;;;;;;;19.05;nan;100847.59;6165905;23;20399;-83
2023/04/28 01:38:50;;;;;;;11.40;3.30;;;;;;;19.05;nan;100846.78;6166175;23;20407;-82
2023/04/28 01:41:18;;;;;;;13.43;3.53;;;;;;;19.09;nan;100851.56;6165829;23;20414;-83
2023/04/28 01:43:46;;;;;;;8.40;3.07;;;;;;;19.11;nan;100849.38;6165568;23;20414;-83
2023/04/28 01:46:14;;;;;;;14.43;3.90;;;;;;;19.05;nan;100842.06;6190084;23;20441;-83
2023/04/28 01:48:42;;;;;;;9.17;3.07;;;;;;;19.12;nan;100850.22;6189860;23;20710;-84
2023/04/28 01:51:10;;;;;;;9.13;4.20;;;;;;;19.14;nan;100854.44;6184335;23;20432;-83
2023/04/28 01:53:38;;;;;;;14.77;3.23;;;;;;;19.19;nan;100854.53;6135453;23;20570;-83
2023/04/28 01:56:05;;;;;;;17.23;3.70;;;;;;;19.15;nan;100839.50;6135479;23;20781;-83
2023/04/28 01:58:34;;;;;;;15.43;3.70;;;;;;;19.32;nan;100854.22;6185865;23;20737;-83
2023/04/28 02:01:03;;;;;;;16.57;3.60;;;;;;;19.36;nan;100854.59;6111120;23;20404;-84
2023/04/28 02:03:31;;;;;;;18.83;4.37;;;;;;;19.39;nan;100847.69;6160291;23;20408;-83
2023/04/28 02:05:59;;;;;;;14.93;3.83;;;;;;;19.42;nan;100848.06;6135715;23;21134;-83
2023/04/28 02:08:27;;;;;;;11.10;3.80;;;;;;;19.44;nan;100856.09;6136324;23;20774;-83
2023/04/28 02:10:57;;;;;;;14.60;4.30;;;;;;;19.40;nan;100849.38;6111098;23;20408;-83
2023/04/28 02:13:25;;;;;;;18.70;4.63;;;;;;;19.43;nan;100843.34;6136451;23;20479;-83
2023/04/28 02:15:52;;;;;;;14.70;4.20;;;;;;;19.38;nan;100834.94;6184927;23;20887;-83
2023/04/28 02:18:20;;;;;;;16.13;3.80;;;;;;;19.37;nan;100833.25;6159908;23;20408;-83
2023/04/28 02:20:48;;;;;;;17.50;3.97;;;;;;;19.30;nan;100827.84;6135474;23;20404;-83
2023/04/28 02:23:16;;;;;;;10.97;3.10;;;;;;;19.18;nan;100830.69;6135377;23;20491;-83
2023/04/28 02:25:45;;;;;;;7.40;3.00;;;;;;;19.06;nan;100832.66;6135514;23;20589;-83
2023/04/28 02:28:13;;;;;;;8.67;3.70;;;;;;;18.90;nan;100823.22;6159838;23;20405;-83
2023/04/28 02:30:41;;;;;;;15.60;4.00;;;;;;;18.87;nan;100836.72;6135209;23;20404;-83
2023/04/28 02:33:16;;;;;;;11.53;2.70;;;;;;;18.82;nan;100850.47;6185789;23;20483;-89
2023/04/28 02:36:04;;;;;;;7.53;2.77;;;;;;;18.78;nan;100852.06;6161506;23;20400;-83
2023/04/28 02:38:32;;;;;;;8.83;3.50;;;;;;;18.62;nan;100837.91;6185195;23;20404;-83
2023/04/28 02:41:01;;;;;;;10.33;3.30;;;;;;;18.57;nan;100842.44;6136109;23;20404;-83
2023/04/28 02:43:29;;;;;;;8.30;2.93;;;;;;;18.56;nan;100844.38;6135820;23;20458;-83
2023/04/28 02:45:58;;;;;;;13.70;3.30;;;;;;;18.47;nan;100840.28;6134826;23;20526;-83
2023/04/28 02:48:26;;;;;;;7.57;3.10;;;;;;;18.44;nan;100853.78;6159026;23;20412;-83
2023/04/28 02:50:53;;;;;;;10.23;3.77;;;;;;;18.36;nan;100849.44;6127070;23;20938;-83
2023/04/28 02:53:23;;;;;;;12.67;2.97;;;;;;;18.31;nan;100852.09;6189159;23;20399;-84
2023/04/28 02:55:51;;;;;;;9.77;3.10;;;;;;;18.29;nan;100841.28;6188653;23;20395;-83
2023/04/28 02:58:19;;;;;;;9.70;3.60;;;;;;;18.22;nan;100843.34;6165174;23;20403;-83
2023/04/28 03:00:47;;;;;;;10.80;4.13;;;;;;;18.11;nan;100832.25;6163618;23;20486;-85
2023/04/28 03:03:14;;;;;;;13.73;4.77;;;;;;;18.21;nan;100829.75;6160873;23;20402;-85
2023/04/28 03:05:42;;;;;;;14.33;3.70;;;;;;;18.20;nan;100830.84;6136962;23;20445;-84
2023/04/28 03:08:10;;;;;;;11.03;3.03;;;;;;;18.07;nan;100815.34;6164920;23;20490;-83
2023/04/28 03:10:38;;;;;;;11.13;3.50;;;;;;;18.04;nan;100823.28;6140922;23;20403;-82
2023/04/28 03:13:06;;;;;;;8.10;3.20;;;;;;;18.00;nan;100816.53;6215594;23;20909;-83
2023/04/28 03:15:33;;;;;;;10.27;3.63;;;;;;;17.94;nan;100824.69;6140794;23;20743;-84
2023/04/28 03:18:00;;;;;;;9.40;3.67;;;;;;;17.88;nan;100825.69;6140166;23;20418;-83
2023/04/28 03:20:28;;;;;;;21.10;2.90;;;;;;;17.84;nan;100823.63;6140811;23;20400;-83
2023/04/28 03:22:56;;;;;;;9.37;3.50;;;;;;;17.78;nan;100819.03;6164893;23;20391;-84
2023/04/28 03:25:24;;;;;;;7.90;3.10;;;;;;;17.69;nan;100829.63;6140606;23;20443;-83
2023/04/28 03:27:52;;;;;;;7.73;3.10;;;;;;;17.67;nan;100840.09;6140877;23;20464;-83
2023/04/28 03:30:20;;;;;;;10.57;3.77;;;;;;;17.62;nan;100842.69;6166797;23;20410;-83
2023/04/28 03:32:48;;;;;;;9.93;3.20;;;;;;;17.53;nan;100844.94;6142201;23;20410;-84
2023/04/28 03:35:15;;;;;;;7.10;2.83;;;;;;;17.49;nan;100838.22;6190157;23;20407;-83
2023/04/28 03:37:43;;;;;;;10.30;2.93;;;;;;;17.43;nan;100832.78;6165144;23;20411;-83
2023/04/28 03:40:11;;;;;;;9.80;3.70;;;;;;;17.39;nan;100831.56;6190060;23;20552;-83
2023/04/28 03:42:39;;;;;;;11.40;3.20;;;;;;;17.35;nan;100827.59;6141879;23;20402;-83
2023/04/28 03:45:08;;;;;;;10.43;3.40;;;;;;;17.25;nan;100817.97;6165869;23;20752;-83
2023/04/28 03:47:36;;;;;;;17.80;3.07;;;;;;;17.26;nan;100827.09;6190244;23;20900;-83
2023/04/28 03:50:07;;;;;;;21.60;3.80;;;;;;;17.22;nan;100835.00;6189576;23;20545;-83
2023/04/28 03:53:12;;;;;;;9.43;3.20;;;;;;;17.19;nan;100832.72;6190281;23;20403;-83
2023/04/28 03:56:18;;;;;;;6.47;2.90;;;;;;;17.13;nan;100835.56;6190055;23;20522;-84
2023/04/28 03:58:45;;;;;;;7.83;2.83;;;;;;;17.15;nan;100834.25;6189993;23;20399;-83
2023/04/28 04:01:13;;;;;;;8.10;3.17;;;;;;;17.30;nan;100833.00;6165180;23;20464;-83
2023/04/28 04:03:41;;;;;;;11.13;2.73;;;;;;;17.39;nan;100828.81;6190394;23;20537;-83
2023/04/28 04:06:10;;;;;;;10.43;3.40;;;;;;;17.54;nan;100829.19;6215940;23;20461;-83
2023/04/28 04:08:38;;;;;;;10.77;2.90;;;;;;;17.66;nan;100832.88;6190024;23;20411;-83
2023/04/28 04:11:06;;;;;;;15.30;4.00;;;;;;;17.77;nan;100829.25;6190877;23;20545;-83
2023/04/28 04:13:35;;;;;;;8.77;2.80;;;;;;;17.86;nan;100825.06;6142049;23;20402;-83
2023/04/28 04:16:03;;;;;;;8.20;2.60;;;;;;;17.98;nan;100836.13;6191427;23;20725;-83
2023/04/28 04:18:30;;;;;;;11.50;3.50;;;;;;;18.07;nan;100831.09;6142294;23;20486;-86
2023/04/28 04:20:58;;;;;;;11.40;3.23;;;;;;;18.14;nan;100843.69;6191155;23;20414;-86
2023/04/28 04:23:28;;;;;;;9.97;2.90;;;;;;;18.17;nan;100839.59;6217478;23;20402;-86
2023/04/28 04:25:56;;;;;;;9.20;2.63;;;;;;;18.26;nan;100836.25;6190689;23;20510;-85
2023/04/28 04:28:25;;;;;;;8.60;2.53;;;;;;;18.30;nan;100844.88;6217039;23;20403;-85
2023/04/28 04:30:54;;;;;;;14.30;3.40;;;;;;;18.37;nan;100840.06;6190755;23;20869;-84
2023/04/28 04:33:22;;;;;;;12.33;3.13;;;;;;;18.34;nan;100840.56;6190877;23;20403;-83
2023/04/28 04:35:51;;;;;;;10.73;2.60;;;;;;;18.37;nan;100845.59;6166752;23;20391;-84
2023/04/28 04:38:20;;;;;;;17.23;3.13;;;;;;;18.36;nan;100841.16;6216553;23;20462;-83
2023/04/28 04:40:49;;;;;;;9.97;2.40;;;;;;;18.39;nan;100860.03;6216583;23;20403;-83
2023/04/28 04:43:34;;;;;;;7.70;2.27;;;;;;;18.42;nan;100854.03;6217105;23;20386;-83
2023/04/28 04:46:03;;;;;;;10.90;2.73;;;;;;;18.42;nan;100853.19;6190686;23;20442;-83
2023/04/28 04:48:31;;;;;;;9.70;2.93;;;;;;;18.42;nan;100850.41;6190452;23;20402;-83
2023/04/28 04:50:59;;;;;;;11.10;2.60;;;;;;;18.41;nan;100846.81;6165757;23;20436;-83
2023/04/28 04:53:27;;;;;;;10.20;2.57;;;;;;;18.39;nan;100846.22;6166224;23;20410;-83
2023/04/28 04:55:56;;;;;;;8.00;2.23;;;;;;;18.38;nan;100846.44;6166378;23;20395;-84
2023/04/28 04:58:24;;;;;;;9.47;2.20;;;;;;;18.37;nan;100844.75;6215164;23;20425;-83
2023/04/28 05:00:52;;;;;;;16.03;3.07;;;;;;;18.34;nan;100846.09;6165788;23;20429;-83
2023/04/28 05:03:20;;;;;;;6.00;2.13;;;;;;;18.32;nan;100848.25;6190431;23;20894;-83
2023/04/28 05:05:48;;;;;;;8.23;2.27;;;;;;;18.21;nan;100840.81;6165939;23;20403;-83
2023/04/28 05:08:16;;;;;;;12.57;2.90;;;;;;;18.11;nan;100852.47;6043078;23;20451;-83
2023/04/28 05:10:46;;;;;;;6.93;2.03;;;;;;;17.98;nan;100855.50;6066198;23;20915;-83
2023/04/28 05:13:13;;;;;;;5.70;2.10;;;;;;;17.85;nan;100858.50;6043572;23;20531;-83
2023/04/28 05:15:41;;;;;;;8.67;2.83;;;;;;;17.73;nan;100855.69;5996283;23;20416;-84
2023/04/28 05:18:13;;;;;;;10.60;2.33;;;;;;;17.64;nan;100859.91;5998850;23;20524;-85
2023/04/28 05:20:41;;;;;;;15.73;2.90;;;;;;;17.59;nan;100860.56;6043082;23;20490;-86
2023/04/28 05:23:09;;;;;;;5.67;2.43;;;;;;;17.47;nan;100845.91;6043065;23;20974;-85
2023/04/28 05:25:38;;;;;;;8.87;3.07;;;;;;;17.39;nan;100849.00;6068136;23;20549;-85
2023/04/28 05:28:12;;;;;;;9.80;2.70;;;;;;;17.31;nan;100851.25;6214688;23;20891;-84
2023/04/28 05:30:42;;;;;;;12.00;3.03;;;;;;;17.26;nan;100865.78;6166188;23;20403;-85
2023/04/28 05:33:10;;;;;;;8.70;3.40;;;;;;;17.19;nan;100871.38;6165615;23;20407;-84
2023/04/28 05:35:38;;;;;;;9.63;3.13;;;;;;;17.10;nan;100866.44;6165605;23;20410;-85
2023/04/28 05:38:06;;;;;;;10.60;3.03;;;;;;;17.08;nan;100865.81;6165715;23;20482;-85
2023/04/28 05:40:33;;;;;;;7.50;2.77;;;;;;;16.96;nan;100864.91;6165742;23;20415;-85
2023/04/28 05:43:01;;;;;;;8.40;2.60;;;;;;;16.94;nan;100862.38;6140891;23;20403;-86
2023/04/28 05:45:28;;;;;;;7.53;2.60;;;;;;;16.82;nan;100853.22;6165931;23;20403;-84
2023/04/28 05:47:56;;;;;;;5.97;2.63;;;;;;;16.81;nan;100857.03;6165310;23;20505;-84
2023/04/28 05:50:25;;;;;;;11.53;2.77;;;;;;;16.85;nan;100864.63;6165597;23;20431;-84
2023/04/28 05:52:53;;;;;;;9.70;2.63;;;;;;;16.84;nan;100870.38;6189339;23;20491;-84
2023/04/28 05:55:21;;;;;;;6.83;2.60;;;;;;;16.77;nan;100872.38;6165891;23;20418;-85
2023/04/28 05:57:49;;;;;;;9.60;2.77;;;;;;;16.78;nan;100883.19;6165403;23;20787;-85
2023/04/28 06:00:20;;;;;;;10.90;3.17;;;;;;;16.73;nan;100891.34;6190242;23;20721;-84
2023/04/28 06:02:49;;;;;;;8.00;2.67;;;;;;;16.66;nan;100890.56;6189784;23;20410;-85
2023/04/28 06:05:17;;;;;;;6.50;2.60;;;;;;;16.61;nan;100901.41;6141271;23;20461;-84
2023/04/28 06:07:45;;;;;;;7.73;2.50;;;;;;;16.56;nan;100896.56;6165580;23;20427;-85
2023/04/28 06:10:15;;;;;;;7.37;2.87;;;;;;;16.49;nan;100898.59;6189867;23;20466;-84
2023/04/28 06:12:44;;;;;;;6.90;2.30;;;;;;;16.52;nan;100898.13;6165569;23;20737;-85
2023/04/28 06:15:12;;;;;;;8.93;2.20;;;;;;;16.55;nan;100908.69;6189914;23;20860;-84
2023/04/28 06:17:41;;;;;;;8.90;2.60;;;;;;;16.56;nan;100909.53;6165420;23;20391;-85
2023/04/28 06:20:11;;;;;;;3.93;1.60;;;;;;;16.62;nan;100922.41;6165465;23;20484;-85
2023/04/28 06:22:40;;;;;;;6.13;2.27;;;;;;;16.71;nan;100917.47;6141915;23;20410;-85
2023/04/28 06:25:08;;;;;;;7.63;2.23;;;;;;;16.78;nan;100912.72;6141330;23;20755;-84
2023/04/28 06:27:37;;;;;;;7.10;2.53;;;;;;;16.88;nan;100921.31;6165697;23;20442;-84
2023/04/28 06:30:05;;;;;;;5.23;2.30;;;;;;;16.95;nan;100924.81;6141288;23;20403;-84
2023/04/28 06:32:34;;;;;;;5.73;1.77;;;;;;;17.05;nan;100918.75;6141174;23;20486;-85
2023/04/28 06:35:04;;;;;;;6.93;2.30;;;;;;;17.18;nan;100924.94;6189489;23;20972;-85
2023/04/28 06:37:32;;;;;;;6.93;2.27;;;;;;;17.29;nan;100926.09;6189328;23;20774;-84
2023/04/28 06:40:01;;;;;;;5.63;2.00;;;;;;;17.50;nan;100935.78;6188879;23;20411;-85
2023/04/28 06:42:29;;;;;;;12.90;2.47;;;;;;;17.66;nan;100948.97;6190158;23;20525;-84
2023/04/28 06:44:56;;;;;;;11.53;2.43;;;;;;;17.80;nan;100947.69;6164644;23;20411;-84
2023/04/28 06:47:24;;;;;;;10.23;2.23;;;;;;;17.92;nan;100954.06;6140511;23;21027;-85
2023/04/28 06:49:52;;;;;;;12.23;2.10;;;;;;;18.08;nan;100955.31;6164847;23;20414;-85
2023/04/28 06:52:21;;;;;;;8.47;2.50;;;;;;;18.26;nan;100959.91;6165575;23;20407;-84
2023/04/28 06:54:53;;;;;;;6.83;2.50;;;;;;;18.29;nan;100951.94;6190205;23;20465;-85
2023/04/28 06:57:21;;;;;;;5.33;2.30;;;;;;;18.47;nan;100964.84;6188732;23;20418;-85
2023/04/28 06:59:49;;;;;;;6.50;2.53;;;;;;;18.52;nan;100964.97;6165133;23;20403;-85
2023/04/28 07:02:17;;;;;;;9.07;3.80;;;;;;;18.56;nan;100980.00;6215641;23;20735;-84
2023/04/28 07:04:45;;;;;;;8.00;3.10;;;;;;;18.60;nan;100983.19;6164959;23;20510;-85
2023/04/28 07:07:13;;;;;;;9.50;3.37;;;;;;;18.56;nan;100971.72;6215093;23;20442;-84
2023/04/28 07:09:41;;;;;;;9.37;3.40;;;;;;;18.60;nan;100983.19;6140675;23;20410;-84
2023/04/28 07:12:10;;;;;;;13.73;3.60;;;;;;;18.61;nan;100985.72;6215615;23;20403;-85
2023/04/28 07:14:38;;;;;;;12.27;3.20;;;;;;;18.59;nan;100985.09;6141543;23;20403;-85
2023/04/28 07:17:06;;;;;;;12.70;3.43;;;;;;;18.59;nan;100979.56;6215422;23;20396;-85
2023/04/28 07:19:34;;;;;;;11.40;3.47;;;;;;;18.78;nan;100990.50;6189380;23;20953;-85
2023/04/28 07:22:02;;;;;;;7.97;3.53;;;;;;;18.89;nan;100995.19;6164575;23;21037;-85
2023/04/28 07:24:30;;;;;;;7.20;3.40;;;;;;;18.93;nan;100982.53;6165186;23;20466;-84
2023/04/28 07:26:58;;;;;;;12.67;3.20;;;;;;;19.04;nan;101003.03;6165003;23;20435;-84
2023/04/28 07:29:27;;;;;;;10.53;3.40;;;;;;;19.13;nan;100998.78;6189901;23;20403;-84
2023/04/28 07:31:56;;;;;;;7.73;3.10;;;;;;;19.27;nan;101012.09;6165315;23;20486;-85
2023/04/28 07:34:24;;;;;;;11.10;3.27;;;;;;;19.39;nan;101000.16;6215476;23;20403;-85
2023/04/28 07:36:53;;;;;;;10.17;3.70;;;;;;;19.51;nan;101001.81;6215320;23;20395;-86
2023/04/28 07:39:20;;;;;;;10.67;4.30;;;;;;;19.63;nan;101004.53;6140126;23;20466;-85
2023/04/28 07:41:48;;;;;;;11.40;3.27;;;;;;;19.69;nan;101019.38;6189587;23;20794;-85
2023/04/28 07:44:16;;;;;;;10.87;3.90;;;;;;;19.76;nan;101015.38;6189475;23;20953;-84
2023/04/28 07:46:44;;;;;;;9.77;3.07;;;;;;;19.83;nan;101021.59;6215398;23;20431;-85
2023/04/28 07:49:13;;;;;;;13.63;3.10;;;;;;;19.87;nan;101022.78;6164411;23;20957;-87
2023/04/28 07:51:42;;;;;;;12.27;3.70;;;;;;;19.86;nan;101018.31;6140093;23;20573;-84
2023/04/28 07:54:10;;;;;;;6.53;2.90;;;;;;;19.96;nan;101024.06;6189498;23;20409;-85
2023/04/28 07:56:38;;;;;;;11.10;3.23;;;;;;;20.07;nan;101027.88;6189103;23;20474;-83
2023/04/28 07:59:06;;;;;;;14.53;3.37;;;;;;;20.10;nan;101019.03;6139943;23;20900;-84
2023/04/28 08:01:34;;;;;;;11.73;3.80;;;;;;;20.22;nan;101018.97;6139887;23;20407;-86
2023/04/28 08:04:02;;;;;;;8.50;3.40;;;;;;;20.26;nan;101014.59;6140583;23;20471;-86
2023/04/28 08:06:31;;;;;;;9.93;3.00;;;;;;;20.28;nan;101004.94;6164925;23;20742;-86
2023/04/28 08:09:01;;;;;;;14.03;3.70;;;;;;;20.25;nan;100990.72;6164803;23;20403;-85
2023/04/28 08:11:32;;;;;;;11.50;4.00;;;;;;;20.30;nan;101001.91;6164398;23;20417;-85
2023/04/28 08:14:27;;;;;;;8.83;3.10;;;;;;;20.37;nan;100991.50;6213936;23;20490;-85
2023/04/28 09:52:12;;;;;;;14.47;2.20;;;;;;;24.90;nan;101069.28;6213559;23;20450;-87
2023/04/28 09:54:40;;;;;;;6.20;1.57;;;;;;;24.96;nan;101084.97;6165075;23;20418;-87
2023/04/28 09:57:10;;;;;;;4.57;1.60;;;;;;;25.03;nan;101075.16;6165738;23;20407;-86
2023/04/28 09:59:40;;;;;;;7.33;1.83;;;;;;;25.17;nan;101092.22;6165122;23;20738;-87
2023/04/28 10:02:17;;;;;;;5.30;1.80;;;;;;;25.31;nan;101087.72;6166569;23;20477;-88
2023/04/28 10:05:07;;;;;;;9.67;2.30;;;;;;;25.44;nan;101081.50;6154332;23;20399;-88
2023/04/28 10:07:38;;;;;;;11.00;1.70;;;;;;;25.65;nan;101087.06;6165903;23;20499;-91
2023/04/28 10:10:06;;;;;;;6.40;1.80;;;;;;;25.85;nan;101075.78;6141145;23;20407;-89
2023/04/28 10:12:42;;;;;;;8.93;2.40;;;;;;;26.07;nan;101066.97;6143201;23;20407;-89
2023/04/28 10:15:11;;;;;;;8.30;2.50;;;;;;;26.24;nan;101066.59;6190238;23;20402;-89
2023/04/28 10:17:44;;;;;;;4.03;1.70;;;;;;;26.36;nan;101067.13;6190142;23;20487;-88
2023/04/28 10:20:17;;;;;;;6.03;2.53;;;;;;;26.42;nan;101071.53;6189522;23;20441;-89
2023/04/28 10:22:56;;;;;;;8.53;1.90;;;;;;;26.53;nan;101081.56;6189477;23;20399;-88
2023/04/28 10:25:34;;;;;;;8.13;2.70;;;;;;;26.79;nan;101077.41;6189539;23;20473;-89
2023/04/28 10:28:07;;;;;;;10.40;2.50;;;;;;;27.02;nan;101073.00;6214597;23;20588;-89
2023/04/28 10:30:36;;;;;;;10.47;2.90;;;;;;;27.14;nan;101083.81;6165475;23;20392;-88
2023/04/28 10:33:13;;;;;;;13.10;3.17;;;;;;;27.11;nan;101082.47;6165601;23;20395;-89
2023/04/28 10:35:46;;;;;;;11.17;2.30;;;;;;;27.01;nan;101076.09;6189351;23;20746;-89
2023/04/28 10:38:20;;;;;;;21.60;3.40;;;;;;;26.97;nan;101083.44;6165253;23;20403;-89
2023/04/28 10:41:01;;;;;;;14.47;3.03;;;;;;;26.91;nan;101077.03;6190923;23;20853;-91
2023/04/28 10:43:32;;;;;;;9.10;3.00;;;;;;;27.01;nan;101076.09;6190837;23;20565;-89
2023/04/28 10:46:05;;;;;;;13.03;3.33;;;;;;;27.23;nan;101073.63;6215571;23;20490;-89
2023/04/28 10:48:36;;;;;;;13.00;2.60;;;;;;;27.47;nan;101074.50;6164890;23;20961;-90
2023/04/28 10:51:11;;;;;;;7.20;2.93;;;;;;;27.73;nan;101071.38;6215224;23;20414;-89
2023/04/28 10:53:42;;;;;;;13.37;3.80;;;;;;;27.99;nan;101069.09;6215544;23;20489;-88
2023/04/28 10:56:11;;;;;;;15.60;3.73;;;;;;;28.18;nan;101078.38;6189499;23;20478;-90
2023/04/28 10:58:44;;;;;;;17.43;3.53;;;;;;;28.37;nan;101076.41;6189503;23;20403;-90
2023/04/28 11:01:24;;;;;;;13.73;3.63;;;;;;;28.55;nan;101074.72;6164538;23;20407;-89
2023/04/28 11:04:11;;;;;;;11.10;3.63;;;;;;;28.69;nan;101078.41;6189681;23;20509;-89
2023/04/28 11:06:45;;;;;;;24.60;3.77;;;;;;;28.86;nan;101064.63;6188852;23;20993;-89
2023/04/28 11:09:19;;;;;;;10.80;3.20;;;;;;;29.01;nan;101072.00;6190117;23;20446;-89
2023/04/28 11:12:04;;;;;;;11.20;3.10;;;;;;;29.00;nan;101070.31;6190097;23;20438;-89
2023/04/28 11:14:33;;;;;;;12.77;3.77;;;;;;;29.02;nan;101065.22;6188826;23;20406;-89
2023/04/28 11:17:10;;;;;;;10.30;3.00;;;;;;;29.12;nan;101069.81;6144955;23;20411;-89
2023/04/28 11:19:44;;;;;;;9.80;3.20;;;;;;;29.16;nan;101070.88;6168609;23;20870;-90
2023/04/28 11:22:19;;;;;;;26.33;5.37;;;;;;;29.29;nan;101086.09;6141085;23;20411;-90
2023/04/28 11:29:17;;;;;;;13.97;3.63;;;;;;;29.34;nan;101066.31;6147208;23;20513;-90
2023/04/28 11:40:13;;;;;;;16.20;4.13;;;;;;;29.89;nan;101089.69;6123370;23;20541;-90
2023/04/28 11:44:02;;;;;;;15.47;3.87;;;;;;;29.59;nan;101079.09;6104620;23;20790;-91
2023/04/28 11:47:34;;;;;;;8.83;3.00;;;;;;;29.37;nan;101105.94;6071486;23;20425;-91
2023/04/28 11:54:25;;;;;;;15.93;3.60;;;;;;;29.19;nan;101098.41;6033581;23;20415;-90
2023/04/28 11:57:49;;;;;;;12.67;3.87;;;;;;;29.46;nan;101103.25;6085476;23;20443;-90
2023/04/28 13:26:45;;;;;;;;;;;;;;;;;;;;;
2023/04/28 15:43:05;;;;;;;5.70;1.57;;;;;;;26.32;nan;101136.09;6220229;22;20405;-90
2023/04/28 17:18:46;;;;;;;11.70;2.27;;;;;;;25.42;nan;101116.50;6038360;23;20356;-90
2023/04/28 17:33:36;;;;;;;6.10;1.43;;;;;;;24.40;nan;101104.50;5928084;24;20445;-89
2023/04/28 17:56:10;;;;;;;4.80;2.00;;;;;;;24.46;nan;101142.50;6186361;23;20387;-89
2023/04/28 18:03:11;;;;;;;5.43;1.90;;;;;;;23.83;nan;101130.56;6213190;22;20453;-89
2023/04/28 19:02:01;;;;;;;8.10;2.03;;;;;;;21.64;nan;101244.53;6094883;23;20359;-89
2023/04/28 20:04:27;;;;;;;;;;;;;;;;;;;;;
2023/04/28 20:27:48;;;;;;;6.40;2.10;;;;;;;20.20;nan;101307.94;6070248;23;20378;-88
2023/04/28 20:42:25;;;;;;;6.50;1.70;;;;;;;20.14;nan;101305.28;6161757;23;20375;-88
2023/04/28 21:07:57;;;;;;;6.17;1.93;;;;;;;19.62;nan;101310.72;6186362;23;20451;-87
2023/04/28 21:10:32;;;;;;;10.17;1.57;;;;;;;19.67;nan;101328.31;6136162;23;20802;-87
2023/04/28 21:13:23;;;;;;;8.33;2.20;;;;;;;19.61;nan;101323.75;6178151;23;20434;-87
2023/04/28 21:19:35;;;;;;;5.43;1.53;;;;;;;19.57;nan;101333.63;6186013;23;20415;-87
2023/04/28 21:22:34;;;;;;;13.27;2.23;;;;;;;19.61;nan;101329.28;6168675;23;20473;-87
2023/04/28 21:25:39;;;;;;;10.83;2.03;;;;;;;19.68;nan;101334.69;6145833;23;20882;-87
2023/04/28 21:28:38;;;;;;;10.47;2.23;;;;;;;19.64;nan;101323.22;6162436;23;20489;-87
2023/04/28 21:31:31;;;;;;;8.23;2.27;;;;;;;19.70;nan;101338.06;6151444;23;20414;-87
2023/04/28 21:34:31;;;;;;;5.60;2.00;;;;;;;19.64;nan;101334.31;6160647;23;20402;-87
2023/04/28 21:37:08;;;;;;;8.60;1.53;;;;;;;19.61;nan;101322.88;6142719;23;20704;-87
2023/04/28 21:39:41;;;;;;;10.27;2.03;;;;;;;19.62;nan;101319.88;6171297;23;20403;-87
2023/04/28 21:42:33;;;;;;;15.83;2.13;;;;;;;19.66;nan;101342.41;6189524;23;20399;-87
2023/04/28 21:45:08;;;;;;;6.03;1.53;;;;;;;19.57;nan;101321.66;6173796;23;20415;-87
2023/04/28 21:47:42;;;;;;;13.27;2.43;;;;;;;19.53;nan;101328.78;6168520;23;20466;-87
2023/04/28 21:50:36;;;;;;;11.50;2.37;;;;;;;19.63;nan;101348.44;6166024;23;20734;-87
2023/04/28 21:53:05;;;;;;;8.80;1.83;;;;;;;19.49;nan;101321.97;6166588;23;20407;-87
2023/04/28 21:55:48;;;;;;;6.90;2.30;;;;;;;19.58;nan;101340.00;6141394;23;20465;-87
2023/04/28 21:58:22;;;;;;;9.03;1.97;;;;;;;19.54;nan;101333.25;6164976;23;20414;-87
2023/04/28 22:00:53;;;;;;;6.37;1.90;;;;;;;19.45;nan;101335.47;6142953;23;20494;-87
2023/04/28 22:03:47;;;;;;;5.40;1.70;;;;;;;19.53;nan;101348.19;6169488;23;20402;-87
2023/04/28 22:06:23;;;;;;;7.20;1.67;;;;;;;19.45;nan;101335.47;6163067;23;20482;-87
2023/04/28 22:09:04;;;;;;;9.27;2.07;;;;;;;19.45;nan;101342.94;6142794;23;20438;-87
2023/04/28 22:11:46;;;;;;;9.07;1.93;;;;;;;19.40;nan;101340.91;6169253;23;20407;-87
2023/04/28 22:15:08;;;;;;;9.57;1.73;;;;;;;19.53;nan;101375.91;6189915;23;20419;-87
2023/04/28 22:17:45;;;;;;;11.77;1.93;;;;;;;19.41;nan;101362.00;6190946;23;20410;-87
2023/04/28 22:20:21;;;;;;;6.77;2.03;;;;;;;19.46;nan;101375.13;6164779;23;20403;-87
2023/04/28 22:22:57;;;;;;;6.87;2.00;;;;;;;19.44;nan;101375.38;6140535;23;20415;-87
2023/04/28 22:25:39;;;;;;;11.13;1.87;;;;;;;19.40;nan;101359.47;6167048;23;20429;-86
2023/04/28 22:28:14;;;;;;;10.63;1.83;;;;;;;19.46;nan;101375.13;6142003;23;20411;-87
2023/04/28 22:31:06;;;;;;;11.03;1.83;;;;;;;19.45;nan;101367.91;6165835;23;20403;-87
2023/04/28 22:34:22;;;;;;;10.87;1.80;;;;;;;19.53;nan;101370.38;6165007;23;20402;-87
2023/04/28 22:36:59;;;;;;;7.20;1.73;;;;;;;19.42;nan;101351.75;6166598;23;20905;-87
2023/04/28 22:39:35;;;;;;;12.60;2.23;;;;;;;19.34;nan;101344.63;6141956;23;20482;-87
2023/04/28 22:42:38;;;;;;;6.93;2.03;;;;;;;19.36;nan;101353.53;6191130;23;20411;-87